Time;durP1;ratioP1;P1;durP2;ratioP2;P2;SDS_P1;SDS_P2;PMS_P1;PMS_P2;Temp;Humidity;BMP_temperature;BMP_pressure;BME280_temperature;BME280_humidity;BME280_pressure;Samples;Min_cycle;Max_cycle;Signal;HPM_P1;HPM_P2
2021/11/20 00:12:43;;;;;;;0.20;0.10;;;10.20;99.90;;;;;;20650225;28;20258;-73
2021/11/20 00:22:49;;;;;;;0.20;0.00;;;10.30;99.90;;;;;;20732621;28;20206;-73
2021/11/20 00:33:15;;;;;;;0.20;0.10;;;9.90;99.90;;;;;;20744922;28;20229;-73
2021/11/20 00:43:23;;;;;;;0.20;0.07;;;10.20;99.90;;;;;;20726698;28;20199;-73
2021/11/20 00:53:29;;;;;;;0.20;0.10;;;9.90;99.90;;;;;;20742618;28;20253;-74
2021/11/20 01:03:32;;;;;;;0.20;0.10;;;9.70;99.90;;;;;;20754370;23;20310;-68
2021/11/20 01:13:38;;;;;;;0.20;0.10;;;9.80;99.90;;;;;;20723468;28;20317;-67
2021/11/20 01:23:43;;;;;;;0.20;0.03;;;9.80;99.90;;;;;;20723776;28;20738;-68
2021/11/20 01:33:49;;;;;;;0.20;0.10;;;9.60;99.90;;;;;;20725350;28;21001;-68
2021/11/20 01:43:54;;;;;;;0.20;0.10;;;9.30;99.90;;;;;;20739807;28;20190;-69
2021/11/20 01:54:19;;;;;;;0.20;0.10;;;9.30;99.90;;;;;;20744818;28;20217;-69
2021/11/20 02:04:30;;;;;;;0.20;0.10;;;9.10;99.90;;;;;;20750587;28;20227;-69
2021/11/20 02:14:36;;;;;;;0.20;0.10;;;9.30;99.90;;;;;;20740534;28;20217;-69
2021/11/20 02:24:41;;;;;;;0.20;0.10;;;9.30;99.90;;;;;;20739917;28;20601;-69
2021/11/20 02:34:52;;;;;;;0.20;0.10;;;9.40;99.90;;;;;;20739073;28;20704;-69
2021/11/20 02:44:56;;;;;;;0.20;0.10;;;9.40;99.90;;;;;;20738252;28;20226;-69
2021/11/20 02:55:01;;;;;;;0.20;0.10;;;9.20;99.90;;;;;;20737554;28;20282;-69
2021/11/20 03:05:06;;;;;;;0.20;0.00;;;9.00;99.90;;;;;;20737878;28;20258;-69
2021/11/20 03:15:12;;;;;;;0.20;0.10;;;9.00;99.90;;;;;;20718217;28;20210;-68
2021/11/20 03:25:15;;;;;;;0.20;0.10;;;8.80;99.90;;;;;;20736436;28;20229;-68
2021/11/20 03:35:21;;;;;;;0.20;0.10;;;9.00;99.90;;;;;;20718270;28;20655;-68
2021/11/20 03:45:28;;;;;;;0.20;0.10;;;8.70;99.90;;;;;;20734956;28;20726;-68
2021/11/20 03:55:35;;;;;;;0.20;0.10;;;8.70;99.90;;;;;;20717557;28;20290;-69
2021/11/20 04:05:39;;;;;;;0.20;0.10;;;8.50;99.90;;;;;;20748232;28;20725;-68
2021/11/20 04:15:45;;;;;;;0.20;0.10;;;8.30;99.90;;;;;;20749497;28;20289;-68
2021/11/20 04:25:48;;;;;;;0.20;0.10;;;8.70;99.90;;;;;;20730760;28;20235;-69
2021/11/20 04:35:53;;;;;;;0.20;0.00;;;8.70;99.90;;;;;;20747524;28;20589;-68
2021/11/20 04:45:57;;;;;;;0.20;0.10;;;8.80;99.90;;;;;;20746319;28;20875;-68
2021/11/20 04:56:03;;;;;;;0.20;0.10;;;8.50;99.90;;;;;;20745993;28;20194;-67
2021/11/20 05:06:08;;;;;;;0.20;0.10;;;8.20;99.90;;;;;;20728499;28;20238;-67
2021/11/20 05:16:14;;;;;;;0.20;0.10;;;8.40;99.90;;;;;;20742180;28;20227;-67
2021/11/20 05:26:18;;;;;;;0.20;0.00;;;8.40;99.90;;;;;;20740318;28;20349;-68
2021/11/20 05:36:26;;;;;;;0.20;0.10;;;8.40;99.90;;;;;;20742980;28;20195;-68
2021/11/20 05:46:30;;;;;;;0.63;0.63;;;8.60;99.90;;;;;;20742305;28;20309;-68
2021/11/20 05:56:37;;;;;;;0.20;0.10;;;8.30;99.90;;;;;;20741662;28;20195;-68
2021/11/20 06:06:59;;;;;;;0.20;0.10;;;8.50;99.90;;;;;;20739677;28;20246;-68
2021/11/20 06:17:04;;;;;;;0.20;0.10;;;8.70;99.90;;;;;;20740060;28;20207;-69
2021/11/20 06:27:08;;;;;;;0.20;0.00;;;8.80;99.90;;;;;;20738892;28;20254;-67
2021/11/20 06:37:13;;;;;;;0.20;0.10;;;9.10;99.90;;;;;;20739208;28;20289;-68
2021/11/20 06:47:17;;;;;;;0.20;0.10;;;8.90;99.90;;;;;;20737629;28;20254;-68
2021/11/20 06:57:47;;;;;;;0.20;0.10;;;9.00;99.90;;;;;;20736942;28;20197;-68
2021/11/20 07:07:51;;;;;;;0.20;0.10;;;9.10;99.90;;;;;;20735345;28;20319;-69
2021/11/20 07:17:56;;;;;;;0.20;0.10;;;9.50;99.90;;;;;;20735644;28;20704;-68
2021/11/20 07:28:00;;;;;;;0.20;0.00;;;9.80;99.90;;;;;;20735367;28;20233;-69
2021/11/20 07:38:08;;;;;;;0.20;0.10;;;10.10;99.90;;;;;;20746021;28;20245;-69
2021/11/20 07:48:13;;;;;;;0.20;0.10;;;10.80;99.90;;;;;;20750551;28;20691;-66
2021/11/20 07:58:20;;;;;;;0.20;0.13;;;11.10;99.90;;;;;;20749852;28;20278;-68
2021/11/20 08:08:24;;;;;;;0.20;0.10;;;11.50;99.90;;;;;;20748268;28;20249;-68
2021/11/20 08:18:29;;;;;;;0.20;0.10;;;11.80;99.90;;;;;;20746949;28;20203;-68
2021/11/20 08:28:33;;;;;;;0.20;0.10;;;12.10;99.90;;;;;;20747860;28;20227;-68
2021/11/20 08:38:38;;;;;;;0.20;0.10;;;12.40;99.90;;;;;;20745361;28;20260;-68
2021/11/20 08:48:44;;;;;;;0.20;0.10;;;12.60;99.90;;;;;;20725147;28;20261;-68
2021/11/20 08:58:49;;;;;;;0.20;0.10;;;12.90;99.90;;;;;;20742040;28;20249;-68
2021/11/20 09:08:56;;;;;;;0.20;0.10;;;13.20;99.90;;;;;;20656799;28;20386;-69
2021/11/20 09:19:02;;;;;;;0.27;0.20;;;13.60;99.90;;;;;;20579972;28;20196;-68
2021/11/20 09:29:14;;;;;;;0.20;0.10;;;13.80;99.90;;;;;;20577021;28;20224;-67
2021/11/20 09:39:29;;;;;;;0.20;0.07;;;14.10;99.90;;;;;;20572468;28;20631;-70
2021/11/20 09:49:36;;;;;;;0.20;0.10;;;15.20;99.90;;;;;;20577486;28;20219;-68
2021/11/20 09:59:43;;;;;;;0.20;0.10;;;16.00;99.90;;;;;;20574651;28;20242;-69
2021/11/20 10:09:50;;;;;;;0.20;0.00;;;15.50;99.90;;;;;;20739774;28;20657;-68
2021/11/20 10:20:00;;;;;;;0.20;0.10;;;16.10;99.90;;;;;;20758780;28;20466;-67
2021/11/20 10:30:27;;;;;;;0.20;0.10;;;16.70;99.90;;;;;;20783610;28;20218;-67
2021/11/20 10:40:38;;;;;;;0.20;0.10;;;17.80;99.90;;;;;;20812415;28;20297;-69
2021/11/20 10:50:45;;;;;;;0.20;0.10;;;18.50;99.90;;;;;;20814012;28;20586;-69
2021/11/20 11:01:33;;;;;;;0.20;0.10;;;18.00;99.90;;;;;;20733835;28;20226;-70
2021/11/20 11:11:42;;;;;;;0.20;0.00;;;16.80;99.90;;;;;;20696781;28;20226;-69
2021/11/20 11:21:57;;;;;;;0.20;0.00;;;17.80;99.90;;;;;;20699405;28;20649;-72
2021/11/20 11:32:04;;;;;;;0.20;0.20;;;18.00;99.90;;;;;;20733832;28;20761;-70
2021/11/20 11:42:25;;;;;;;0.20;0.03;;;18.40;99.90;;;;;;20715165;28;20673;-70
2021/11/20 11:52:47;;;;;;;0.20;0.10;;;19.80;99.90;;;;;;20714509;28;20646;-69
2021/11/20 12:02:55;;;;;;;0.20;0.10;;;19.30;99.90;;;;;;20730852;28;20648;-69
2021/11/20 12:13:04;;;;;;;0.20;0.10;;;18.50;99.90;;;;;;20731405;28;20221;-69
2021/11/20 12:23:24;;;;;;;0.20;0.00;;;18.70;99.90;;;;;;20720514;28;20652;-71
2021/11/20 12:33:47;;;;;;;0.20;0.10;;;18.70;99.90;;;;;;20743506;28;20263;-71
2021/11/20 12:44:26;;;;;;;0.20;0.20;;;20.60;99.90;;;;;;20741746;28;20213;-72
2021/11/20 12:54:56;;;;;;;0.20;0.00;;;21.20;99.90;;;;;;20725761;28;20641;-71
2021/11/20 13:05:15;;;;;;;0.20;0.10;;;19.80;99.90;;;;;;20740226;28;20227;-71
2021/11/20 13:15:30;;;;;;;0.20;0.10;;;17.90;99.90;;;;;;20743446;28;20222;-68
2021/11/20 13:25:55;;;;;;;0.20;0.10;;;17.40;99.90;;;;;;20740488;28;20187;-74
2021/11/20 13:36:01;;;;;;;0.20;0.10;;;17.10;99.90;;;;;;20722916;28;21114;-72
2021/11/20 13:46:09;;;;;;;0.20;0.00;;;17.30;99.90;;;;;;20706429;28;20574;-71
2021/11/20 13:56:15;;;;;;;0.20;0.00;;;17.30;99.90;;;;;;20739101;28;20688;-72
2021/11/20 14:06:19;;;;;;;0.20;0.00;;;17.00;99.90;;;;;;20719098;28;20257;-71
2021/11/20 14:16:32;;;;;;;0.20;0.10;;;17.20;99.90;;;;;;20734182;28;20227;-74
2021/11/20 14:26:46;;;;;;;0.20;0.00;;;16.70;99.90;;;;;;20735113;28;20683;-73
2021/11/20 14:36:51;;;;;;;0.20;0.10;;;16.70;99.90;;;;;;20732447;28;20594;-75
2021/11/20 14:47:07;;;;;;;0.20;0.10;;;16.70;99.90;;;;;;20730019;28;20194;-72
2021/11/20 14:57:12;;;;;;;0.20;0.10;;;16.60;99.90;;;;;;20711462;28;20264;-70
2021/11/20 15:07:16;;;;;;;0.20;0.00;;;16.40;99.90;;;;;;20730441;28;20223;-72
2021/11/20 15:17:23;;;;;;;0.20;0.00;;;16.10;99.90;;;;;;20729896;28;20261;-72
2021/11/20 15:27:27;;;;;;;0.20;0.00;;;16.00;99.90;;;;;;20728575;28;20215;-71
2021/11/20 15:37:32;;;;;;;0.20;0.10;;;15.80;99.90;;;;;;20729465;28;20218;-71
2021/11/20 15:47:39;;;;;;;0.20;0.10;;;15.50;99.90;;;;;;20730147;28;20230;-69
2021/11/20 15:57:45;;;;;;;0.20;0.10;;;15.30;99.90;;;;;;20738353;28;20203;-72
2021/11/20 16:07:49;;;;;;;0.20;0.00;;;15.20;99.90;;;;;;20745110;28;20234;-70
2021/11/20 16:17:55;;;;;;;0.20;0.00;;;15.00;99.90;;;;;;20726304;28;20301;-67
2021/11/20 16:27:58;;;;;;;0.20;0.10;;;14.80;99.90;;;;;;20744061;28;20576;-70
2021/11/20 16:38:04;;;;;;;0.20;0.10;;;14.70;99.90;;;;;;20742618;28;20234;-71
2021/11/20 16:48:08;;;;;;;0.20;0.00;;;14.40;99.90;;;;;;20742377;28;20218;-71
2021/11/20 16:58:13;;;;;;;0.20;0.10;;;14.40;99.90;;;;;;20733094;28;20206;-71
2021/11/20 17:08:17;;;;;;;0.20;0.00;;;14.50;99.90;;;;;;20737302;28;20246;-72
2021/11/20 17:18:22;;;;;;;0.20;0.00;;;14.30;99.90;;;;;;20739153;28;20282;-71
2021/11/20 17:28:26;;;;;;;0.20;0.10;;;14.20;99.90;;;;;;20736644;28;20349;-71
2021/11/20 17:38:32;;;;;;;0.20;0.20;;;14.10;99.90;;;;;;20750376;28;20224;-68
2021/11/20 17:48:36;;;;;;;0.20;0.10;;;13.70;99.90;;;;;;20744881;28;20242;-70
2021/11/20 17:58:42;;;;;;;0.27;0.27;;;13.80;99.90;;;;;;20736230;28;20191;-69
2021/11/20 18:08:51;;;;;;;0.20;0.10;;;13.80;99.90;;;;;;20734098;28;20707;-69
2021/11/20 18:18:57;;;;;;;0.20;0.10;;;13.70;99.90;;;;;;20734598;28;20194;-69
2021/11/20 18:29:05;;;;;;;0.50;0.50;;;13.70;99.90;;;;;;20734160;28;20536;-68
2021/11/20 18:39:12;;;;;;;0.20;0.10;;;13.60;99.90;;;;;;20732967;28;20223;-70
2021/11/20 18:49:16;;;;;;;0.20;0.10;;;13.50;99.90;;;;;;20715885;28;20222;-69
2021/11/20 18:59:21;;;;;;;0.20;0.10;;;13.50;99.90;;;;;;20731964;28;20226;-71
2021/11/20 19:09:25;;;;;;;0.20;0.10;;;13.60;99.90;;;;;;20732171;28;20237;-70
2021/11/20 19:19:30;;;;;;;0.20;0.10;;;13.40;99.90;;;;;;20733681;28;20595;-70
2021/11/20 19:29:34;;;;;;;0.20;0.10;;;13.40;99.90;;;;;;20733698;28;20324;-69
2021/11/20 19:39:39;;;;;;;0.20;0.00;;;13.50;99.90;;;;;;20747893;28;20252;-71
2021/11/20 19:49:44;;;;;;;0.20;0.00;;;13.40;99.90;;;;;;20745239;28;20223;-71
2021/11/20 19:59:49;;;;;;;0.20;0.10;;;13.40;99.90;;;;;;20751919;28;20199;-71
2021/11/20 20:09:52;;;;;;;0.20;0.20;;;13.40;99.90;;;;;;20746929;28;20631;-71
2021/11/20 20:19:58;;;;;;;0.20;0.10;;;13.50;99.90;;;;;;20725861;28;20612;-72
2021/11/20 20:30:03;;;;;;;0.37;0.37;;;13.60;99.90;;;;;;20741085;28;20257;-73
2021/11/20 20:40:24;;;;;;;0.20;0.00;;;13.60;99.90;;;;;;20740634;28;20191;-72
2021/11/20 20:50:33;;;;;;;0.20;0.00;;;13.50;99.90;;;;;;20699136;28;20638;-70
2021/11/20 21:00:38;;;;;;;0.20;0.10;;;13.60;99.90;;;;;;20742613;28;20694;-72
2021/11/20 21:10:43;;;;;;;0.20;0.10;;;13.40;99.90;;;;;;20737486;28;20223;-70
2021/11/20 21:31:13;;;;;;;0.20;0.10;;;13.40;99.90;;;;;;20739766;28;20250;-72
2021/11/20 21:41:29;;;;;;;0.20;0.10;;;13.60;99.90;;;;;;20719962;28;20237;-72
2021/11/20 21:51:33;;;;;;;0.20;0.10;;;13.50;99.90;;;;;;20741266;28;20703;-74
2021/11/20 22:01:38;;;;;;;0.20;0.10;;;13.40;99.90;;;;;;20739579;28;20225;-71
2021/11/20 22:12:03;;;;;;;0.20;0.10;;;13.50;99.90;;;;;;20703249;28;20308;-72
2021/11/20 22:22:14;;;;;;;0.20;0.10;;;13.60;99.90;;;;;;20703608;28;20194;-72
2021/11/20 22:32:19;;;;;;;3.33;2.47;;;13.50;99.90;;;;;;20737981;28;20292;-71
2021/11/20 22:42:24;;;;;;;0.20;0.10;;;13.60;99.90;;;;;;20737205;28;20190;-74
2021/11/20 22:52:27;;;;;;;0.20;0.10;;;13.70;99.90;;;;;;20737941;28;20223;-76
2021/11/20 23:02:32;;;;;;;0.20;0.10;;;13.80;99.90;;;;;;20736125;28;20215;-73
2021/11/20 23:12:36;;;;;;;0.20;0.10;;;13.80;99.90;;;;;;20735456;28;20218;-73
2021/11/20 23:22:42;;;;;;;0.20;0.00;;;13.90;99.90;;;;;;20733235;28;20197;-73
2021/11/20 23:32:53;;;;;;;0.20;0.07;;;13.80;99.90;;;;;;20734368;28;20225;-73
2021/11/20 23:42:58;;;;;;;0.20;0.10;;;13.70;99.90;;;;;;20734319;28;20199;-77
2021/11/20 23:53:01;;;;;;;0.20;0.10;;;13.60;99.90;;;;;;20733831;28;20215;-75
